Time;durP1;ratioP1;P1;durP2;ratioP2;P2;SDS_P1;SDS_P2;PMS_P1;PMS_P2;Temp;Humidity;BMP_temperature;BMP_pressure;BME280_temperature;BME280_humidity;BME280_pressure;Samples;Min_cycle;Max_cycle;Signal;HPM_P1;HPM_P2
2022/10/09 00:00:37;;;;;;;12.85;3.58;;;8.20;99.90;;;;;;4929068;29;20514;-62
2022/10/09 00:03:02;;;;;;;18.08;3.75;;;8.10;99.90;;;;;;4946218;29;20040;-62
2022/10/09 00:05:28;;;;;;;14.13;3.30;;;8.20;99.90;;;;;;4949113;28;20043;-62
2022/10/09 00:07:54;;;;;;;13.00;4.15;;;8.10;99.90;;;;;;4954732;28;20130;-62
2022/10/09 00:10:20;;;;;;;14.52;4.20;;;8.30;99.90;;;;;;4945599;29;20447;-62
2022/10/09 00:12:46;;;;;;;15.30;3.50;;;8.20;99.90;;;;;;4946532;29;20062;-61
2022/10/09 00:15:12;;;;;;;10.85;3.55;;;8.20;99.90;;;;;;4945664;29;20479;-62
2022/10/09 00:17:38;;;;;;;12.63;3.30;;;8.10;99.90;;;;;;4946575;29;20039;-61
2022/10/09 00:20:04;;;;;;;12.13;3.85;;;8.10;99.90;;;;;;4945890;29;20053;-62
2022/10/09 00:22:30;;;;;;;21.98;4.85;;;8.00;99.90;;;;;;4946032;28;20110;-62
2022/10/09 00:24:56;;;;;;;9.63;3.72;;;8.00;99.90;;;;;;4944867;29;20055;-63
2022/10/09 00:27:22;;;;;;;15.38;3.80;;;7.90;99.90;;;;;;4945833;29;20059;-62
2022/10/09 00:29:48;;;;;;;15.65;3.80;;;8.00;99.90;;;;;;4946393;29;20047;-62
2022/10/09 00:32:13;;;;;;;11.15;3.55;;;7.90;99.90;;;;;;4945032;29;20133;-62
2022/10/09 00:34:39;;;;;;;11.02;3.83;;;7.90;99.90;;;;;;4946388;29;20079;-62
2022/10/09 00:37:05;;;;;;;16.77;4.82;;;7.90;99.90;;;;;;4945734;29;20534;-62
2022/10/09 00:39:30;;;;;;;16.73;3.80;;;7.90;99.90;;;;;;4946087;29;20482;-63
2022/10/09 00:41:56;;;;;;;14.80;4.35;;;7.80;99.90;;;;;;4945230;29;20467;-62
2022/10/09 00:44:48;;;;;;;9.48;3.85;;;7.90;99.90;;;;;;4945849;29;20043;-62
2022/10/09 00:47:23;;;;;;;12.13;4.32;;;7.80;99.90;;;;;;4944873;29;20067;-61
2022/10/09 00:49:52;;;;;;;15.05;4.22;;;7.80;99.90;;;;;;4945991;29;20043;-62
2022/10/09 00:52:20;;;;;;;16.02;4.57;;;7.80;99.90;;;;;;4928270;29;20079;-61
2022/10/09 00:54:45;;;;;;;14.27;4.93;;;7.80;99.90;;;;;;4944601;29;20039;-61
2022/10/09 00:57:11;;;;;;;13.95;4.70;;;7.80;99.90;;;;;;4928224;28;20051;-61
2022/10/09 00:59:38;;;;;;;11.63;4.03;;;7.60;99.90;;;;;;4945710;29;20050;-61
2022/10/09 01:02:04;;;;;;;11.10;4.50;;;7.70;99.90;;;;;;4945040;29;20178;-62
2022/10/09 01:04:30;;;;;;;7.72;3.83;;;7.80;99.90;;;;;;4946132;28;20114;-61
2022/10/09 01:07:26;;;;;;;12.05;4.10;;;7.70;99.90;;;;;;4956747;28;20517;-61
2022/10/09 01:09:58;;;;;;;11.05;4.18;;;7.70;99.90;;;;;;4945267;29;20394;-61
2022/10/09 01:12:59;;;;;;;10.63;4.35;;;7.60;99.90;;;;;;4945285;29;20138;-61
2022/10/09 01:15:39;;;;;;;13.68;4.00;;;7.50;99.90;;;;;;4945809;29;20055;-61
2022/10/09 01:18:11;;;;;;;9.20;4.07;;;7.50;99.90;;;;;;4944409;29;20043;-60
2022/10/09 01:21:03;;;;;;;9.30;4.28;;;7.50;99.90;;;;;;4945573;29;20047;-62
2022/10/09 01:23:31;;;;;;;9.68;4.05;;;7.60;99.90;;;;;;4945441;29;20528;-61
2022/10/09 01:26:15;;;;;;;11.57;4.47;;;7.50;99.90;;;;;;4945328;29;20051;-62
2022/10/09 01:28:54;;;;;;;12.13;4.40;;;7.60;99.90;;;;;;4945359;29;20043;-62
2022/10/09 01:31:22;;;;;;;8.15;4.05;;;7.60;99.90;;;;;;4945414;29;20387;-62
2022/10/09 01:33:48;;;;;;;10.80;4.95;;;7.50;99.90;;;;;;4928658;28;20066;-61
2022/10/09 01:36:16;;;;;;;13.18;4.90;;;7.50;99.90;;;;;;4948047;29;20055;-62
2022/10/09 01:38:43;;;;;;;10.15;4.97;;;7.80;99.90;;;;;;4931849;29;20043;-61
2022/10/09 01:41:09;;;;;;;12.60;5.00;;;7.50;99.90;;;;;;4948053;29;20043;-61
2022/10/09 01:43:35;;;;;;;14.60;5.82;;;7.50;99.90;;;;;;4949076;29;20159;-61
2022/10/09 01:46:37;;;;;;;10.10;4.85;;;7.60;99.90;;;;;;4948561;29;20522;-63
2022/10/09 01:49:11;;;;;;;12.75;5.20;;;7.50;99.90;;;;;;4907170;29;20184;-62
2022/10/09 01:51:48;;;;;;;11.23;4.97;;;7.40;99.90;;;;;;4943088;29;20070;-60
2022/10/09 01:54:17;;;;;;;12.55;5.53;;;7.50;99.90;;;;;;4948912;29;20050;-61
2022/10/09 01:56:48;;;;;;;14.27;5.85;;;7.30;99.90;;;;;;4954488;28;20058;-61
2022/10/09 01:59:17;;;;;;;11.98;5.75;;;7.50;99.90;;;;;;4967822;28;20050;-61
2022/10/09 02:01:44;;;;;;;12.07;5.97;;;7.40;99.90;;;;;;4951185;28;20130;-62
2022/10/09 02:04:13;;;;;;;13.38;5.78;;;7.30;99.90;;;;;;4967173;28;20050;-62
2022/10/09 02:06:41;;;;;;;12.10;5.97;;;7.40;99.90;;;;;;4965900;28;20058;-62
2022/10/09 02:09:12;;;;;;;11.63;5.95;;;7.50;99.90;;;;;;4950229;28;20039;-61
2022/10/09 02:11:41;;;;;;;12.63;6.28;;;7.50;99.90;;;;;;4966381;28;20108;-61
2022/10/09 02:14:07;;;;;;;11.70;5.70;;;7.30;99.90;;;;;;4967373;28;20070;-61
2022/10/09 02:16:45;;;;;;;11.88;6.18;;;7.30;99.90;;;;;;4971444;28;20700;-61
2022/10/09 02:19:11;;;;;;;10.30;5.78;;;7.40;99.90;;;;;;4969606;28;20134;-61
2022/10/09 02:21:43;;;;;;;11.77;5.97;;;7.40;99.90;;;;;;4969500;28;20138;-61
2022/10/09 02:24:14;;;;;;;13.07;6.00;;;7.30;99.90;;;;;;4986828;28;20050;-62
2022/10/09 02:26:40;;;;;;;15.73;6.32;;;7.30;99.90;;;;;;4968943;28;20073;-61
2022/10/09 02:29:06;;;;;;;16.25;7.03;;;7.20;99.90;;;;;;4986477;28;20045;-61
2022/10/09 02:31:36;;;;;;;16.50;6.63;;;7.20;99.90;;;;;;4987131;28;20084;-62
2022/10/09 02:34:05;;;;;;;15.30;6.47;;;7.20;99.90;;;;;;4986306;28;20038;-62
2022/10/09 02:36:31;;;;;;;15.38;6.80;;;7.20;99.90;;;;;;4987322;28;20042;-62
2022/10/09 02:38:57;;;;;;;13.27;6.20;;;7.20;99.90;;;;;;4987015;28;20051;-62
2022/10/09 02:41:24;;;;;;;16.67;6.80;;;7.10;99.90;;;;;;4985062;28;20057;-61
2022/10/09 02:43:50;;;;;;;16.05;7.18;;;7.10;99.90;;;;;;4986970;28;20064;-62
2022/10/09 02:46:16;;;;;;;11.05;5.97;;;7.20;99.90;;;;;;4985407;28;20054;-62
2022/10/09 02:48:41;;;;;;;12.10;6.22;;;7.20;99.90;;;;;;4986522;28;20093;-62
2022/10/09 02:51:08;;;;;;;13.32;6.65;;;7.10;99.90;;;;;;4985891;28;20038;-61
2022/10/09 02:53:33;;;;;;;11.77;6.57;;;7.30;99.90;;;;;;4969250;28;20050;-61
2022/10/09 02:55:59;;;;;;;12.48;6.28;;;7.10;99.90;;;;;;4986324;28;20045;-61
2022/10/09 02:58:25;;;;;;;12.35;6.43;;;7.20;99.90;;;;;;4985486;28;20144;-62
2022/10/09 03:00:52;;;;;;;14.27;6.82;;;7.10;99.90;;;;;;4986147;28;20457;-61
2022/10/09 03:03:19;;;;;;;15.02;6.80;;;7.10;99.90;;;;;;4985865;28;20172;-62
2022/10/09 03:05:45;;;;;;;14.35;6.93;;;7.10;99.90;;;;;;4975052;28;20054;-62
2022/10/09 03:08:11;;;;;;;14.70;6.93;;;7.10;99.90;;;;;;4965980;28;20120;-61
2022/10/09 03:10:38;;;;;;;12.98;6.55;;;7.00;99.90;;;;;;4966156;28;20122;-62
2022/10/09 03:13:05;;;;;;;12.68;7.40;;;7.00;99.90;;;;;;4966566;28;20054;-62
2022/10/09 03:15:34;;;;;;;12.43;7.65;;;7.00;99.90;;;;;;4966168;28;20410;-63
2022/10/09 03:18:00;;;;;;;15.80;7.18;;;6.90;99.90;;;;;;4966951;28;20223;-62
2022/10/09 03:20:28;;;;;;;15.05;7.47;;;7.00;99.90;;;;;;4966738;28;20525;-61
2022/10/09 03:22:55;;;;;;;12.95;7.30;;;6.90;99.90;;;;;;4966077;28;20046;-62
2022/10/09 03:25:21;;;;;;;17.02;7.25;;;6.90;99.90;;;;;;4948383;28;20541;-61
2022/10/09 03:27:46;;;;;;;15.60;6.88;;;7.20;99.90;;;;;;4966739;28;20058;-61
2022/10/09 03:30:13;;;;;;;11.40;7.10;;;7.00;99.90;;;;;;4966848;28;20140;-62
2022/10/09 03:32:39;;;;;;;12.68;6.63;;;6.90;99.90;;;;;;4966028;28;21097;-61
2022/10/09 03:35:05;;;;;;;15.55;7.10;;;6.80;99.90;;;;;;4965950;28;20273;-61
2022/10/09 03:37:30;;;;;;;13.02;7.53;;;6.90;99.90;;;;;;4966749;28;20101;-63
2022/10/09 03:39:57;;;;;;;15.20;7.40;;;6.80;99.90;;;;;;4965646;28;20050;-62
2022/10/09 03:42:23;;;;;;;13.35;7.20;;;6.90;99.90;;;;;;4966195;28;20046;-61
2022/10/09 03:44:48;;;;;;;14.00;7.63;;;6.80;99.90;;;;;;4949286;28;20065;-62
2022/10/09 03:47:14;;;;;;;15.70;8.73;;;7.20;99.90;;;;;;4965932;28;20044;-61
2022/10/09 03:49:40;;;;;;;15.82;7.82;;;6.70;99.90;;;;;;4965864;28;20412;-61
2022/10/09 03:52:06;;;;;;;16.40;8.00;;;6.80;99.90;;;;;;4966171;28;20428;-61
2022/10/09 03:54:31;;;;;;;13.18;7.80;;;7.50;99.90;;;;;;4965115;28;20409;-61
2022/10/09 03:56:57;;;;;;;15.70;7.80;;;7.10;99.90;;;;;;4966457;28;20554;-61
2022/10/09 03:59:23;;;;;;;15.50;8.20;;;6.60;99.90;;;;;;4965087;28;20047;-62
2022/10/09 04:01:48;;;;;;;13.85;8.88;;;6.70;99.90;;;;;;4965690;28;20078;-61
2022/10/09 04:04:14;;;;;;;12.73;7.95;;;6.70;99.90;;;;;;4965373;28;20718;-61
2022/10/09 04:06:40;;;;;;;17.30;9.18;;;6.60;99.90;;;;;;4964255;28;20123;-61
2022/10/09 04:09:05;;;;;;;17.65;9.05;;;6.80;99.90;;;;;;4964943;28;20608;-60
2022/10/09 04:11:31;;;;;;;12.82;8.52;;;6.70;99.90;;;;;;4963893;28;20062;-62
2022/10/09 04:13:57;;;;;;;17.48;9.02;;;6.80;99.90;;;;;;4965786;28;20039;-61
2022/10/09 04:16:22;;;;;;;15.05;9.43;;;6.80;99.90;;;;;;4964546;28;20577;-61
2022/10/09 04:18:48;;;;;;;14.07;9.25;;;6.70;99.90;;;;;;4965858;28;20051;-62
2022/10/09 04:21:14;;;;;;;19.17;10.18;;;7.50;99.90;;;;;;4965352;28;20133;-62
2022/10/09 04:23:39;;;;;;;20.30;9.68;;;6.70;99.90;;;;;;4948185;28;20537;-61
2022/10/09 04:26:05;;;;;;;17.20;9.48;;;6.60;99.90;;;;;;4963455;28;20462;-61
2022/10/09 04:28:31;;;;;;;17.65;9.73;;;6.80;99.90;;;;;;4964406;28;20047;-63
2022/10/09 04:30:58;;;;;;;19.38;9.40;;;6.80;99.90;;;;;;4947141;28;20395;-61
2022/10/09 04:33:25;;;;;;;16.55;9.55;;;6.80;99.90;;;;;;4963446;28;20387;-61
2022/10/09 04:35:52;;;;;;;15.70;10.00;;;6.80;99.90;;;;;;4964320;28;20046;-61
2022/10/09 04:38:19;;;;;;;14.80;9.63;;;6.60;99.90;;;;;;4963889;28;20050;-61
2022/10/09 04:40:58;;;;;;;19.10;10.50;;;6.60;99.90;;;;;;4963399;28;20129;-61
2022/10/09 04:43:24;;;;;;;18.38;10.38;;;6.70;99.90;;;;;;4965066;28;20619;-61
2022/10/09 04:45:49;;;;;;;15.55;10.27;;;6.60;99.90;;;;;;4965207;28;20042;-61
2022/10/09 04:48:15;;;;;;;15.10;10.43;;;6.50;99.90;;;;;;4946033;28;20734;-62
2022/10/09 04:50:40;;;;;;;17.27;10.05;;;6.60;99.90;;;;;;4947086;28;20039;-61
2022/10/09 04:53:07;;;;;;;15.80;10.75;;;6.90;99.90;;;;;;4964660;28;20074;-61
2022/10/09 04:55:40;;;;;;;15.68;10.02;;;6.50;99.90;;;;;;4964382;28;20062;-61
2022/10/09 04:58:06;;;;;;;16.33;10.63;;;6.30;99.90;;;;;;4963901;28;20074;-61
2022/10/09 05:00:44;;;;;;;21.08;11.25;;;6.30;99.90;;;;;;4964997;28;20042;-62
2022/10/09 05:03:11;;;;;;;19.38;11.98;;;6.50;99.90;;;;;;4963937;28;20038;-61
2022/10/09 05:05:37;;;;;;;22.92;14.45;;;6.30;99.90;;;;;;4964214;28;20043;-61
2022/10/09 05:08:03;;;;;;;25.40;14.43;;;6.60;99.90;;;;;;4964088;28;20103;-62
2022/10/09 05:10:31;;;;;;;24.38;15.02;;;6.30;99.90;;;;;;4966718;28;20043;-61
2022/10/09 05:12:57;;;;;;;20.17;13.20;;;6.40;99.90;;;;;;4968418;28;20055;-61
2022/10/09 05:15:22;;;;;;;24.00;14.55;;;6.80;99.90;;;;;;4968572;28;20099;-61
2022/10/09 05:17:48;;;;;;;22.33;12.02;;;6.30;99.90;;;;;;4968507;28;20086;-61
2022/10/09 05:20:14;;;;;;;16.42;10.77;;;6.30;99.90;;;;;;4950273;28;20603;-62
2022/10/09 05:22:43;;;;;;;17.08;11.25;;;6.40;99.90;;;;;;4951108;28;20066;-61
2022/10/09 05:25:08;;;;;;;21.35;11.05;;;6.30;99.90;;;;;;4968211;28;20108;-61
2022/10/09 05:27:34;;;;;;;17.50;11.68;;;6.30;99.90;;;;;;4969024;28;20038;-61
2022/10/09 05:30:00;;;;;;;16.20;11.07;;;6.40;99.90;;;;;;4968149;28;20055;-62
2022/10/09 05:32:26;;;;;;;17.50;10.77;;;6.20;99.90;;;;;;4968616;28;20157;-62
2022/10/09 05:34:51;;;;;;;17.90;11.98;;;6.30;99.90;;;;;;4968498;28;20066;-61
2022/10/09 05:37:17;;;;;;;21.20;11.20;;;6.20;99.90;;;;;;4967799;28;20178;-62
2022/10/09 05:39:44;;;;;;;16.75;11.40;;;6.20;99.90;;;;;;4949824;28;20755;-61
2022/10/09 05:42:09;;;;;;;16.88;10.48;;;6.30;99.90;;;;;;4967929;28;20549;-61
2022/10/09 05:44:35;;;;;;;17.27;10.48;;;6.20;99.90;;;;;;4968296;28;20085;-61
2022/10/09 05:47:01;;;;;;;16.30;10.85;;;6.30;99.90;;;;;;4967425;28;20038;-62
2022/10/09 05:49:26;;;;;;;18.60;11.00;;;6.20;99.90;;;;;;4968582;28;20051;-61
2022/10/09 05:51:53;;;;;;;18.67;10.77;;;6.30;99.90;;;;;;4968010;28;20447;-61
2022/10/09 05:54:19;;;;;;;15.38;10.18;;;6.10;99.90;;;;;;4967384;28;20383;-61
2022/10/09 05:56:45;;;;;;;19.48;11.05;;;6.10;99.90;;;;;;4967565;28;20050;-61
2022/10/09 05:59:13;;;;;;;17.77;10.25;;;6.20;99.90;;;;;;4967473;28;20042;-61
2022/10/09 06:01:48;;;;;;;15.18;9.70;;;6.10;99.90;;;;;;4967962;28;20050;-62
2022/10/09 06:04:18;;;;;;;17.38;9.65;;;6.10;99.90;;;;;;4966947;28;20039;-62
2022/10/09 06:06:47;;;;;;;15.18;10.27;;;6.00;99.90;;;;;;4967398;28;20098;-62
2022/10/09 06:09:17;;;;;;;16.20;10.32;;;6.00;99.90;;;;;;4966651;28;20167;-62
2022/10/09 06:11:44;;;;;;;19.85;10.13;;;6.20;99.90;;;;;;4949864;28;20107;-62
2022/10/09 06:14:12;;;;;;;14.68;10.43;;;6.60;99.90;;;;;;4967377;28;20363;-61
2022/10/09 06:16:40;;;;;;;17.48;9.75;;;6.20;99.90;;;;;;4967321;28;20039;-61
2022/10/09 06:19:06;;;;;;;18.80;9.20;;;6.20;99.90;;;;;;4949743;28;20462;-62
2022/10/09 06:21:33;;;;;;;16.13;9.60;;;6.40;99.90;;;;;;4966468;28;20090;-62
2022/10/09 06:24:00;;;;;;;17.08;9.90;;;6.10;99.90;;;;;;4967736;28;20394;-62
2022/10/09 06:26:28;;;;;;;17.65;10.77;;;6.30;99.90;;;;;;4967421;28;20885;-62
2022/10/09 06:28:54;;;;;;;17.85;10.27;;;6.20;99.90;;;;;;4967615;28;20432;-61
2022/10/09 06:31:25;;;;;;;15.43;10.13;;;6.10;99.90;;;;;;4967651;28;20046;-62
2022/10/09 06:33:52;;;;;;;21.67;10.20;;;6.20;99.90;;;;;;4967233;28;20042;-62
2022/10/09 06:36:23;;;;;;;16.77;9.90;;;6.20;99.90;;;;;;4967322;28;20145;-62
2022/10/09 06:38:50;;;;;;;17.50;10.98;;;6.30;99.90;;;;;;4966737;28;20051;-62
2022/10/09 06:41:25;;;;;;;15.18;10.43;;;6.20;99.90;;;;;;4966961;28;20093;-61
2022/10/09 06:43:53;;;;;;;13.50;9.65;;;6.40;99.90;;;;;;4967300;28;20070;-61
2022/10/09 06:46:20;;;;;;;17.35;10.63;;;6.40;99.90;;;;;;4966831;28;20359;-62
2022/10/09 06:48:46;;;;;;;17.08;10.38;;;6.40;99.90;;;;;;4967559;28;20054;-61
2022/10/09 06:51:17;;;;;;;15.32;10.20;;;6.50;99.90;;;;;;4966346;28;20046;-61
2022/10/09 06:53:49;;;;;;;21.73;10.63;;;7.00;99.90;;;;;;4966674;28;20371;-63
2022/10/09 06:56:16;;;;;;;16.13;10.75;;;6.50;99.90;;;;;;4966516;28;20055;-62
2022/10/09 06:58:42;;;;;;;16.60;11.27;;;6.60;99.90;;;;;;4966777;28;20626;-61
2022/10/09 07:01:09;;;;;;;17.90;11.13;;;6.50;99.90;;;;;;4949335;28;20070;-62
2022/10/09 07:03:36;;;;;;;15.18;11.27;;;6.50;99.90;;;;;;4967086;28;20121;-61
2022/10/09 07:06:08;;;;;;;14.77;11.00;;;6.70;99.90;;;;;;4965801;28;20138;-62
2022/10/09 07:08:35;;;;;;;17.58;11.60;;;6.70;99.90;;;;;;4966864;28;20054;-61
2022/10/09 07:11:30;;;;;;;17.70;11.70;;;6.70;99.90;;;;;;4965789;28;20134;-62
2022/10/09 07:13:58;;;;;;;15.95;11.57;;;6.80;99.90;;;;;;4967320;28;20047;-61
2022/10/09 07:16:27;;;;;;;14.95;11.15;;;6.90;99.90;;;;;;4966462;28;20298;-61
2022/10/09 07:18:53;;;;;;;17.38;11.60;;;7.10;99.90;;;;;;4948104;28;20047;-61
2022/10/09 07:21:19;;;;;;;15.20;11.93;;;7.10;99.90;;;;;;4966099;28;20571;-61
2022/10/09 07:23:45;;;;;;;18.15;11.75;;;7.00;99.90;;;;;;4948324;28;20046;-61
2022/10/09 07:26:17;;;;;;;13.88;11.02;;;7.50;99.90;;;;;;4965803;28;20522;-62
2022/10/09 07:28:43;;;;;;;18.60;12.13;;;7.10;99.90;;;;;;4949559;28;20042;-62
2022/10/09 07:31:10;;;;;;;18.75;12.32;;;7.20;99.90;;;;;;4948058;28;20054;-62
2022/10/09 07:33:36;;;;;;;17.75;11.98;;;7.40;99.90;;;;;;4948317;28;20065;-62
2022/10/09 07:36:04;;;;;;;15.93;10.98;;;7.50;99.90;;;;;;4965528;28;20047;-62
2022/10/09 07:38:30;;;;;;;14.25;11.57;;;7.60;99.90;;;;;;4966605;28;20085;-62
2022/10/09 07:41:08;;;;;;;19.30;11.48;;;7.60;99.90;;;;;;4965371;28;20086;-62
2022/10/09 07:43:35;;;;;;;22.60;11.50;;;7.70;99.90;;;;;;4966423;28;20046;-62
2022/10/09 07:46:02;;;;;;;17.92;11.57;;;7.80;99.90;;;;;;4965889;28;20054;-64
2022/10/09 07:48:28;;;;;;;17.33;11.05;;;8.10;99.90;;;;;;4948748;28;20553;-60
2022/10/09 07:50:54;;;;;;;18.08;11.60;;;8.20;99.90;;;;;;4964746;28;20133;-61
2022/10/09 07:53:20;;;;;;;17.08;10.85;;;8.00;99.90;;;;;;4964741;28;20425;-60
2022/10/09 07:55:47;;;;;;;19.08;11.70;;;8.10;99.90;;;;;;4947642;28;20047;-61
2022/10/09 07:58:14;;;;;;;16.23;11.13;;;8.10;99.90;;;;;;4964448;28;20047;-60
2022/10/09 08:00:40;;;;;;;15.43;10.55;;;8.20;99.90;;;;;;4965845;28;20039;-60
2022/10/09 08:03:06;;;;;;;19.63;11.60;;;8.30;99.90;;;;;;4946750;28;20050;-61
2022/10/09 08:05:32;;;;;;;16.75;10.68;;;8.40;99.90;;;;;;4964817;28;20129;-62
2022/10/09 08:07:57;;;;;;;15.80;10.40;;;8.50;99.90;;;;;;4965375;28;20432;-61
2022/10/09 08:10:23;;;;;;;13.65;10.18;;;8.50;99.90;;;;;;4964802;28;20617;-60
2022/10/09 08:12:48;;;;;;;16.08;10.27;;;8.80;99.90;;;;;;4965298;28;20138;-61
2022/10/09 08:15:14;;;;;;;16.42;10.52;;;8.80;99.90;;;;;;4964867;28;20055;-62
2022/10/09 08:17:40;;;;;;;16.25;9.80;;;9.00;99.90;;;;;;4965362;28;20051;-61
2022/10/09 08:20:06;;;;;;;14.82;10.25;;;9.00;99.90;;;;;;4964688;28;20090;-61
2022/10/09 08:22:32;;;;;;;16.17;10.10;;;9.30;99.90;;;;;;4965596;28;20046;-63
2022/10/09 08:24:58;;;;;;;15.30;10.10;;;9.40;99.90;;;;;;4964495;28;20047;-60
2022/10/09 08:27:24;;;;;;;13.43;9.18;;;9.50;99.90;;;;;;4965137;28;20688;-61
2022/10/09 08:29:50;;;;;;;14.73;9.73;;;9.70;99.90;;;;;;4965683;28;20118;-60
2022/10/09 08:32:16;;;;;;;18.50;9.73;;;9.80;99.90;;;;;;4965419;28;20125;-61
2022/10/09 08:34:41;;;;;;;14.10;9.23;;;9.90;99.90;;;;;;4964778;28;20274;-61
2022/10/09 08:37:07;;;;;;;13.95;8.25;;;10.00;99.90;;;;;;4965194;28;20121;-61
2022/10/09 08:39:32;;;;;;;13.02;8.18;;;10.10;99.90;;;;;;4964262;28;20059;-61
2022/10/09 08:42:02;;;;;;;15.68;8.27;;;10.40;99.90;;;;;;4948078;28;20052;-61
2022/10/09 08:44:41;;;;;;;11.60;7.82;;;10.50;99.90;;;;;;4964888;28;20390;-60
2022/10/09 08:47:25;;;;;;;14.98;7.78;;;10.70;99.90;;;;;;4964693;28;20780;-61
2022/10/09 08:49:56;;;;;;;12.15;7.50;;;10.70;99.90;;;;;;4965398;28;20795;-61
2022/10/09 08:52:42;;;;;;;13.10;7.40;;;10.90;99.90;;;;;;4964616;28;20050;-61
2022/10/09 08:55:18;;;;;;;12.90;7.15;;;10.80;99.90;;;;;;4961050;28;20039;-61
2022/10/09 08:57:47;;;;;;;11.43;6.35;;;11.10;99.90;;;;;;4964575;28;20483;-62
2022/10/09 09:00:18;;;;;;;13.77;6.65;;;11.20;99.90;;;;;;4976228;28;20058;-62
2022/10/09 09:02:50;;;;;;;9.70;5.93;;;11.30;99.90;;;;;;4983982;28;20049;-60
2022/10/09 09:05:40;;;;;;;9.85;5.45;;;12.00;99.90;;;;;;4976379;28;20042;-61
2022/10/09 09:08:17;;;;;;;11.52;5.50;;;12.40;99.90;;;;;;4957036;28;20106;-62
2022/10/09 09:11:08;;;;;;;8.27;5.00;;;12.70;99.90;;;;;;4964387;28;20394;-61
2022/10/09 09:13:51;;;;;;;7.90;4.80;;;13.50;99.90;;;;;;4964877;28;20047;-62
2022/10/09 09:16:59;;;;;;;8.55;4.35;;;13.70;99.90;;;;;;4964039;28;20081;-61
2022/10/09 09:19:44;;;;;;;10.93;4.10;;;13.50;99.90;;;;;;4963236;28;20141;-62
2022/10/09 09:22:14;;;;;;;9.15;4.13;;;13.60;99.90;;;;;;4964328;28;20134;-59
2022/10/09 09:24:49;;;;;;;7.95;4.38;;;13.80;99.90;;;;;;4946918;28;20689;-61
2022/10/09 09:27:27;;;;;;;12.43;4.47;;;13.90;99.90;;;;;;4964896;28;20607;-59
2022/10/09 09:30:11;;;;;;;10.55;4.05;;;13.60;99.90;;;;;;4964958;28;20050;-59
2022/10/09 09:32:42;;;;;;;8.70;3.95;;;14.00;99.90;;;;;;4964897;28;20437;-60
2022/10/09 09:35:32;;;;;;;10.73;4.15;;;14.10;99.90;;;;;;4964109;28;20398;-59
2022/10/09 09:37:58;;;;;;;6.35;3.70;;;14.40;99.90;;;;;;4947449;28;20054;-61
2022/10/09 09:40:29;;;;;;;10.32;4.25;;;14.20;99.90;;;;;;4964168;28;20683;-60
2022/10/09 09:42:55;;;;;;;8.20;3.50;;;14.50;99.90;;;;;;4964175;28;20043;-59
2022/10/09 09:45:25;;;;;;;9.88;4.10;;;14.80;99.90;;;;;;4964018;28;20156;-61
2022/10/09 09:47:58;;;;;;;9.25;3.60;;;14.80;99.90;;;;;;4947371;28;20382;-60
2022/10/09 09:50:38;;;;;;;7.75;3.20;;;14.80;99.90;;;;;;4963683;28;20050;-61
2022/10/09 09:53:17;;;;;;;9.25;3.90;;;14.40;99.90;;;;;;4947324;28;20058;-64
2022/10/09 09:55:43;;;;;;;7.50;3.35;;;14.90;99.90;;;;;;4965174;28;20066;-62
2022/10/09 09:58:16;;;;;;;5.50;2.40;;;14.70;99.90;;;;;;4967517;28;20050;-62
2022/10/09 10:00:56;;;;;;;12.38;3.85;;;14.40;99.90;;;;;;4967947;28;20043;-62
2022/10/09 10:03:23;;;;;;;10.73;3.80;;;14.80;99.90;;;;;;4967359;28;20405;-61
2022/10/09 10:05:50;;;;;;;6.35;3.00;;;15.10;99.90;;;;;;4966874;28;20053;-62
2022/10/09 10:08:28;;;;;;;10.00;3.58;;;15.00;99.90;;;;;;4966192;28;20313;-62
2022/10/09 10:10:57;;;;;;;7.95;2.95;;;14.90;99.90;;;;;;4967563;28;20063;-62
2022/10/09 10:13:34;;;;;;;9.30;3.33;;;14.90;99.90;;;;;;4973813;28;20061;-61
2022/10/09 10:16:01;;;;;;;7.13;2.90;;;14.90;99.90;;;;;;4986390;28;20497;-61
2022/10/09 10:18:31;;;;;;;8.10;3.47;;;15.20;99.90;;;;;;4985544;28;20058;-62
2022/10/09 10:21:03;;;;;;;4.28;1.92;;;15.20;99.90;;;;;;4985898;28;20058;-63
2022/10/09 10:23:48;;;;;;;7.88;2.80;;;14.90;99.90;;;;;;4985921;28;20129;-63
2022/10/09 10:26:36;;;;;;;7.10;2.63;;;14.70;99.90;;;;;;4986704;28;20046;-62
2022/10/09 10:29:14;;;;;;;9.07;2.85;;;15.10;99.90;;;;;;4986053;28;20072;-62
2022/10/09 10:32:02;;;;;;;9.88;2.75;;;15.00;99.90;;;;;;4986450;28;20049;-61
2022/10/09 10:34:45;;;;;;;6.90;2.53;;;15.40;99.90;;;;;;4986043;28;20046;-62
2022/10/09 10:37:14;;;;;;;9.05;3.13;;;14.90;99.90;;;;;;4985162;28;20045;-63
2022/10/09 10:39:51;;;;;;;8.93;3.30;;;15.20;99.90;;;;;;4984775;28;20412;-63
2022/10/09 10:42:41;;;;;;;8.73;3.08;;;15.20;99.90;;;;;;4985114;28;20050;-62
2022/10/09 10:45:33;;;;;;;7.07;2.45;;;15.20;99.90;;;;;;4984998;28;20437;-61
2022/10/09 10:48:01;;;;;;;10.73;2.70;;;15.00;99.90;;;;;;4950443;28;20050;-62
2022/10/09 10:50:35;;;;;;;6.78;2.20;;;15.00;99.90;;;;;;4985462;28;20093;-61
2022/10/09 10:53:26;;;;;;;8.85;3.13;;;14.90;99.90;;;;;;4985438;28;20038;-63
2022/10/09 10:55:55;;;;;;;6.05;1.95;;;15.20;99.90;;;;;;4972570;28;20057;-60
2022/10/09 10:58:30;;;;;;;7.18;2.67;;;14.80;99.90;;;;;;4965306;28;20141;-61
2022/10/09 11:01:13;;;;;;;8.02;2.95;;;15.30;99.90;;;;;;4948157;28;20125;-60
2022/10/09 11:03:47;;;;;;;7.63;2.42;;;15.40;99.90;;;;;;4966406;28;20047;-60
2022/10/09 11:06:28;;;;;;;7.65;2.40;;;15.40;99.90;;;;;;4964301;28;20727;-61
2022/10/09 11:09:05;;;;;;;5.47;2.10;;;15.50;99.90;;;;;;4965846;28;20078;-62
2022/10/09 11:11:51;;;;;;;3.00;1.20;;;15.50;99.90;;;;;;4948602;28;20424;-63
2022/10/09 11:14:29;;;;;;;6.68;2.50;;;15.20;99.90;;;;;;4948644;28;20050;-61
2022/10/09 11:17:18;;;;;;;3.67;1.52;;;15.30;99.90;;;;;;4965902;28;20058;-62
2022/10/09 11:19:47;;;;;;;6.93;2.00;;;15.20;99.90;;;;;;4966234;28;20094;-61
2022/10/09 11:22:15;;;;;;;7.10;1.80;;;15.20;99.90;;;;;;4965152;28;20054;-61
2022/10/09 11:25:10;;;;;;;10.23;2.85;;;15.50;99.90;;;;;;4965805;28;20047;-60
2022/10/09 11:27:57;;;;;;;7.13;1.95;;;15.50;99.90;;;;;;4965456;28;20062;-63
2022/10/09 11:30:25;;;;;;;8.25;2.05;;;15.60;99.90;;;;;;4965930;28;20422;-60
2022/10/09 11:33:02;;;;;;;6.35;1.83;;;15.90;99.90;;;;;;4965780;28;20097;-61
2022/10/09 11:35:38;;;;;;;3.58;1.20;;;15.60;99.90;;;;;;4966658;28;20086;-61
2022/10/09 11:38:13;;;;;;;7.45;1.70;;;15.50;99.90;;;;;;4967342;28;20046;-62
2022/10/09 11:40:42;;;;;;;5.85;0.90;;;15.60;99.90;;;;;;4985222;28;20398;-60
2022/10/09 11:43:21;;;;;;;5.28;1.50;;;15.20;99.90;;;;;;4985085;28;20050;-62
2022/10/09 11:46:20;;;;;;;5.00;1.30;;;15.40;99.90;;;;;;4984728;28;20046;-60
2022/10/09 11:48:58;;;;;;;4.40;1.70;;;15.60;99.90;;;;;;4984204;28;20058;-61
2022/10/09 11:51:35;;;;;;;4.65;1.65;;;15.10;99.90;;;;;;4985378;28;20046;-59
2022/10/09 11:54:04;;;;;;;5.90;1.55;;;15.50;99.90;;;;;;4985165;28;20502;-62
2022/10/09 11:56:31;;;;;;;6.05;1.45;;;15.70;99.90;;;;;;4985583;28;20125;-61
2022/10/09 11:59:02;;;;;;;6.80;1.48;;;15.70;99.90;;;;;;4974766;28;20045;-60
2022/10/09 12:01:41;;;;;;;7.55;2.70;;;15.70;99.90;;;;;;4965340;28;20426;-61
2022/10/09 12:04:13;;;;;;;5.85;1.45;;;15.70;99.90;;;;;;4965413;28;20615;-60
2022/10/09 12:06:54;;;;;;;7.00;1.80;;;15.70;99.90;;;;;;4973344;28;20046;-61
2022/10/09 12:09:38;;;;;;;7.50;1.65;;;16.00;99.90;;;;;;4982404;28;20054;-60
2022/10/09 12:12:21;;;;;;;6.18;1.67;;;15.90;99.90;;;;;;4978477;28;20125;-62
2022/10/09 12:14:49;;;;;;;6.68;1.88;;;15.70;99.90;;;;;;4973656;28;20525;-61
2022/10/09 12:17:22;;;;;;;5.82;1.52;;;15.80;99.90;;;;;;4947882;28;20143;-60
2022/10/09 12:20:10;;;;;;;5.65;1.35;;;15.80;99.90;;;;;;4963536;28;20047;-60
2022/10/09 12:22:43;;;;;;;5.22;1.58;;;15.80;99.90;;;;;;4954736;28;20066;-62
2022/10/09 12:25:31;;;;;;;11.10;1.80;;;16.00;99.90;;;;;;4975671;28;20504;-61
2022/10/09 12:27:59;;;;;;;4.63;1.10;;;16.40;99.90;;;;;;4984223;28;20065;-62
2022/10/09 12:30:47;;;;;;;5.05;1.60;;;16.30;99.90;;;;;;4983387;28;20050;-61
2022/10/09 12:33:42;;;;;;;3.35;1.00;;;16.00;99.90;;;;;;4984328;28;20531;-66
2022/10/09 12:36:14;;;;;;;;;;;16.10;99.90;;;;;;4983996;28;20042;-65
2022/10/09 12:38:40;;;;;;;5.90;1.33;;;16.00;99.90;;;;;;4983066;28;19979;-66
2022/10/09 12:41:20;;;;;;;7.22;1.75;;;16.30;99.90;;;;;;4982973;28;20177;-66
2022/10/09 12:43:51;;;;;;;5.72;1.65;;;16.50;99.90;;;;;;4983976;28;20050;-66
2022/10/09 12:46:37;;;;;;;6.28;1.40;;;16.30;99.90;;;;;;4984091;28;20413;-62
2022/10/09 12:49:13;;;;;;;6.53;1.35;;;16.00;99.90;;;;;;4984164;28;20042;-62
2022/10/09 12:51:39;;;;;;;4.32;1.27;;;16.10;99.90;;;;;;4984675;28;20054;-61
2022/10/09 12:54:09;;;;;;;4.57;1.40;;;16.10;99.90;;;;;;4983060;28;20101;-63
2022/10/09 12:56:37;;;;;;;2.47;0.63;;;16.10;99.90;;;;;;4984669;28;20058;-60
2022/10/09 12:59:04;;;;;;;6.15;1.10;;;15.90;99.90;;;;;;4983874;28;20442;-63
2022/10/09 13:01:31;;;;;;;2.78;1.08;;;16.00;99.90;;;;;;4984417;28;20435;-61